createdAt,value
2023-01-07T00:01:35.706Z,96.80
2023-01-07T00:04:04.972Z,96.80
2023-01-07T00:06:35.512Z,96.80
2023-01-07T00:09:03.910Z,96.70
2023-01-07T00:11:39.460Z,96.70
2023-01-07T00:14:08.519Z,96.70
2023-01-07T00:16:37.087Z,96.60
2023-01-07T00:19:05.597Z,96.60
2023-01-07T00:21:33.025Z,96.70
2023-01-07T00:24:03.794Z,96.70
2023-01-07T00:26:34.126Z,96.70
2023-01-07T00:29:01.333Z,96.70
2023-01-07T00:31:31.623Z,96.70
2023-01-07T00:33:59.587Z,96.70
2023-01-07T00:36:32.999Z,96.70
2023-01-07T00:39:03.246Z,96.70
2023-01-07T00:41:30.313Z,96.80
2023-01-07T00:43:57.498Z,96.70
2023-01-07T00:46:25.532Z,96.70
2023-01-07T00:48:52.531Z,96.70
2023-01-07T00:51:20.215Z,96.70
2023-01-07T00:53:47.599Z,96.70
2023-01-07T00:56:16.324Z,96.70
2023-01-07T00:58:43.671Z,96.70
2023-01-07T01:01:11.858Z,96.70
2023-01-07T01:03:39.918Z,96.80
2023-01-07T01:06:14.917Z,96.80
2023-01-07T01:08:46.396Z,96.80
2023-01-07T01:11:15.418Z,96.80
2023-01-07T01:13:43.467Z,96.80
2023-01-07T01:16:14.854Z,96.80
2023-01-07T01:18:42.267Z,96.80
2023-01-07T01:21:11.543Z,96.80
2023-01-07T01:23:39.101Z,97.00
2023-01-07T01:26:11.089Z,96.80
2023-01-07T01:28:38.403Z,96.70
2023-01-07T01:31:08.422Z,96.80
2023-01-07T01:33:44.278Z,96.80
2023-01-07T01:36:13.223Z,96.80
2023-01-07T01:38:41.418Z,96.70
2023-01-07T01:41:09.179Z,96.70
2023-01-07T01:43:41.762Z,96.70
2023-01-07T01:46:13.548Z,96.60
2023-01-07T01:48:47.681Z,96.60
2023-01-07T01:51:18.706Z,96.60
2023-01-07T01:53:46.007Z,96.60
2023-01-07T01:56:29.827Z,96.60
2023-01-07T01:59:01.304Z,96.60
2023-01-07T02:01:29.534Z,96.60
2023-01-07T02:03:58.055Z,96.60
2023-01-07T02:06:29.706Z,96.60
2023-01-07T02:08:57.158Z,96.60
2023-01-07T02:11:45.163Z,96.70
2023-01-07T02:14:18.200Z,96.70
2023-01-07T02:16:54.043Z,96.70
2023-01-07T02:19:48.899Z,96.70
2023-01-07T02:22:47.005Z,96.60
2023-01-07T02:25:35.644Z,96.50
2023-01-07T02:28:20.805Z,96.50
2023-01-07T02:31:01.952Z,96.50
2023-01-07T02:34:01.522Z,96.50
2023-01-07T02:36:39.479Z,96.60
2023-01-07T02:39:19.718Z,96.50
2023-01-07T02:42:19.526Z,96.60
2023-01-07T02:44:57.088Z,96.60
2023-01-07T02:47:31.166Z,96.70
2023-01-07T02:50:00.782Z,96.70
2023-01-07T02:52:31.151Z,96.70
2023-01-07T02:55:24.366Z,96.70
2023-01-07T02:58:09.653Z,96.70
2023-01-07T03:01:14.851Z,96.70
2023-01-07T03:04:06.533Z,96.80
2023-01-07T03:07:03.851Z,96.80
2023-01-07T03:09:59.345Z,96.80
2023-01-07T03:12:34.848Z,96.80
2023-01-07T03:15:14.665Z,96.80
2023-01-07T03:17:48.766Z,96.80
2023-01-07T03:20:18.535Z,96.80
2023-01-07T03:22:47.229Z,97.10
2023-01-07T03:25:16.412Z,96.80
2023-01-07T03:27:46.533Z,96.90
2023-01-07T03:30:16.634Z,96.80
2023-01-07T03:32:54.833Z,96.80
2023-01-07T03:35:24.998Z,96.80
2023-01-07T03:37:53.469Z,96.80
2023-01-07T03:40:21.688Z,96.80
2023-01-07T03:42:49.579Z,96.80
2023-01-07T03:45:25.093Z,96.70
2023-01-07T03:47:57.140Z,96.70
2023-01-07T03:50:27.386Z,96.70
2023-01-07T03:52:55.725Z,96.70
2023-01-07T03:55:24.261Z,96.70
2023-01-07T03:57:54.216Z,96.70
2023-01-07T04:00:23.873Z,96.70
2023-01-07T04:02:57.632Z,96.70
2023-01-07T04:05:32.429Z,96.70
2023-01-07T04:07:59.518Z,96.70
2023-01-07T04:10:31.615Z,96.70
2023-01-07T04:12:58.752Z,96.70
2023-01-07T04:15:25.842Z,96.70
2023-01-07T04:17:52.978Z,96.70
2023-01-07T04:20:20.039Z,96.70
2023-01-07T04:22:48.193Z,96.70
2023-01-07T04:25:15.209Z,96.60
2023-01-07T04:27:42.327Z,96.70
2023-01-07T04:30:09.851Z,96.70
2023-01-07T04:32:37.874Z,96.70
2023-01-07T04:35:05.272Z,96.70
2023-01-07T04:37:32.532Z,96.70
2023-01-07T04:39:59.695Z,96.70
2023-01-07T04:42:26.888Z,96.70
2023-01-07T04:44:54.461Z,96.80
2023-01-07T04:47:22.676Z,96.80
2023-01-07T04:49:50.359Z,96.80
2023-01-07T04:52:17.636Z,96.80
2023-01-07T04:54:44.732Z,96.90
2023-01-07T04:57:11.913Z,96.90
2023-01-07T04:59:39.564Z,96.90
2023-01-07T05:02:06.840Z,96.90
2023-01-07T05:04:34.051Z,96.90
2023-01-07T05:07:01.666Z,96.90
2023-01-07T05:09:29.467Z,97.00
2023-01-07T05:11:56.526Z,97.00
2023-01-07T05:14:23.853Z,97.00
2023-01-07T05:16:53.768Z,97.00
2023-01-07T05:19:21.925Z,97.00
2023-01-07T05:21:49.679Z,97.00
2023-01-07T05:24:17.879Z,97.00
2023-01-07T05:26:45.611Z,96.90
2023-01-07T05:29:13.797Z,96.80
2023-01-07T05:31:43.020Z,96.80
2023-01-07T05:34:10.288Z,96.80
2023-01-07T05:36:37.969Z,96.90
2023-01-07T05:39:05.965Z,97.00
2023-01-07T05:41:33.775Z,97.10
2023-01-07T05:44:01.159Z,97.10
2023-01-07T05:46:28.273Z,97.20
2023-01-07T05:48:55.276Z,97.20
2023-01-07T05:51:22.318Z,97.20
2023-01-07T05:53:49.334Z,97.20
2023-01-07T05:56:16.379Z,97.30
2023-01-07T05:58:43.442Z,97.30
2023-01-07T06:01:10.604Z,97.30
2023-01-07T06:03:37.826Z,97.30
2023-01-07T06:06:07.375Z,97.30
2023-01-07T06:08:35.967Z,97.20
2023-01-07T06:11:03.825Z,97.20
2023-01-07T06:13:31.297Z,97.30
2023-01-07T06:16:06.558Z,97.20
2023-01-07T06:18:34.126Z,97.20
2023-01-07T06:21:01.451Z,97.30
2023-01-07T06:23:28.559Z,97.30
2023-01-07T06:25:55.564Z,97.40
2023-01-07T06:28:22.597Z,97.40
2023-01-07T06:30:49.810Z,97.50
2023-01-07T06:33:17.625Z,97.40
2023-01-07T06:35:45.943Z,97.50
2023-01-07T06:38:13.331Z,97.50
2023-01-07T06:40:40.326Z,97.50
2023-01-07T06:43:07.300Z,97.50
2023-01-07T06:45:34.307Z,97.50
2023-01-07T06:48:01.391Z,97.50
2023-01-07T06:50:28.410Z,97.50
2023-01-07T06:52:56.963Z,97.40
2023-01-07T06:55:24.193Z,97.30
2023-01-07T06:57:51.177Z,97.30
2023-01-07T07:00:18.376Z,97.30
2023-01-07T07:02:45.486Z,97.20
2023-01-07T07:05:12.731Z,97.30
2023-01-07T07:07:39.832Z,97.20
2023-01-07T07:10:08.411Z,97.20
2023-01-07T07:12:37.009Z,97.10
2023-01-07T07:15:05.912Z,97.10
2023-01-07T07:17:33.014Z,97.00
2023-01-07T07:20:00.094Z,97.00
2023-01-07T07:22:27.150Z,96.90
2023-01-07T07:24:54.154Z,96.90
2023-01-07T07:27:21.203Z,96.90
2023-01-07T07:29:48.276Z,96.80
2023-01-07T07:32:15.329Z,96.80
2023-01-07T07:34:42.443Z,96.80
2023-01-07T07:37:09.441Z,96.70
2023-01-07T07:39:36.417Z,96.70
2023-01-07T07:42:05.033Z,96.60
2023-01-07T07:44:32.106Z,96.60
2023-01-07T07:46:59.205Z,96.60
2023-01-07T07:49:26.259Z,96.50
2023-01-07T07:51:53.298Z,96.50
2023-01-07T07:54:21.820Z,96.40
2023-01-07T07:56:50.690Z,96.40
2023-01-07T07:59:17.608Z,96.30
2023-01-07T08:01:44.861Z,96.20
2023-01-07T08:04:11.890Z,96.20
2023-01-07T08:06:38.900Z,96.10
2023-01-07T08:09:05.933Z,96.00
2023-01-07T08:11:33.456Z,96.00
2023-01-07T08:14:00.500Z,96.00
2023-01-07T08:16:27.557Z,96.00
2023-01-07T08:18:54.624Z,96.00
2023-01-07T08:21:21.597Z,95.90
2023-01-07T08:23:48.601Z,95.90
2023-01-07T08:26:15.540Z,95.90
2023-01-07T08:28:42.481Z,95.90
2023-01-07T08:31:09.611Z,95.80
2023-01-07T08:33:38.632Z,95.90
2023-01-07T08:36:18.175Z,95.80
2023-01-07T08:38:53.737Z,95.80
2023-01-07T08:41:24.880Z,95.80
2023-01-07T08:43:53.394Z,95.80
2023-01-07T08:46:20.474Z,95.70
2023-01-07T08:48:47.517Z,95.70
2023-01-07T08:51:14.538Z,95.60
2023-01-07T08:53:41.560Z,95.50
2023-01-07T08:56:08.849Z,95.50
2023-01-07T08:58:35.911Z,95.40
2023-01-07T09:01:05.920Z,95.30
2023-01-07T09:03:33.823Z,95.30
2023-01-07T09:06:00.884Z,95.30
2023-01-07T09:08:27.960Z,95.30
2023-01-07T09:10:55.031Z,95.10
2023-01-07T09:13:22.225Z,94.80
2023-01-07T09:15:49.221Z,94.60
2023-01-07T09:18:16.308Z,94.70
2023-01-07T09:20:43.402Z,94.80
2023-01-07T09:23:10.399Z,94.80
2023-01-07T09:25:37.553Z,94.70
2023-01-07T09:28:04.645Z,94.70
2023-01-07T09:30:31.625Z,94.60
2023-01-07T09:32:58.647Z,94.50
2023-01-07T09:35:25.769Z,94.50
2023-01-07T09:37:52.793Z,94.40
2023-01-07T09:40:25.197Z,94.40
2023-01-07T09:42:55.211Z,94.20
2023-01-07T09:45:27.338Z,94.00
2023-01-07T09:47:58.808Z,93.90
2023-01-07T09:50:46.225Z,93.90
2023-01-07T09:53:19.730Z,93.80
2023-01-07T09:56:11.816Z,93.60
2023-01-07T09:58:38.688Z,93.40
2023-01-07T10:01:24.781Z,93.50
2023-01-07T10:04:22.387Z,93.50
2023-01-07T10:07:15.542Z,93.50
2023-01-07T10:09:54.603Z,93.40
2023-01-07T10:12:33.819Z,93.40
2023-01-07T10:15:19.462Z,93.40
2023-01-07T10:18:12.455Z,93.40
2023-01-07T10:20:51.519Z,93.40
2023-01-07T10:23:26.139Z,93.50
2023-01-07T10:25:56.087Z,93.40
2023-01-07T10:28:32.494Z,93.30
2023-01-07T10:31:01.712Z,93.20
2023-01-07T10:33:33.206Z,93.10
2023-01-07T10:36:42.968Z,93.20
2023-01-07T10:39:28.596Z,93.30
2023-01-07T10:42:06.079Z,93.60
2023-01-07T10:44:58.056Z,93.20
2023-01-07T10:47:39.899Z,93.10
2023-01-07T10:50:39.366Z,93.00
2023-01-07T10:53:24.247Z,93.00
2023-01-07T10:56:00.103Z,92.90
2023-01-07T10:58:34.722Z,92.80
2023-01-07T11:01:01.908Z,92.80
2023-01-07T11:03:29.438Z,92.50
2023-01-07T11:06:08.693Z,92.40
2023-01-07T11:08:41.737Z,92.40
2023-01-07T11:11:18.326Z,92.40
2023-01-07T11:14:00.600Z,92.20
2023-01-07T11:16:38.804Z,92.00
2023-01-07T11:19:08.344Z,92.00
2023-01-07T11:21:44.961Z,92.10
2023-01-07T11:24:35.025Z,92.30
2023-01-07T11:27:17.370Z,92.30
2023-01-07T11:30:03.851Z,92.20
2023-01-07T11:32:38.495Z,92.10
2023-01-07T11:35:08.601Z,91.90
2023-01-07T11:37:43.727Z,91.70
2023-01-07T11:40:13.775Z,91.80
2023-01-07T11:43:15.709Z,91.70
2023-01-07T11:46:21.073Z,91.80
2023-01-07T11:49:02.731Z,91.70
2023-01-07T11:51:40.279Z,91.80
2023-01-07T11:54:22.063Z,92.00
2023-01-07T11:56:49.709Z,91.90
2023-01-07T11:59:19.462Z,92.00
2023-01-07T12:01:51.943Z,92.20
2023-01-07T12:04:26.981Z,92.20
2023-01-07T12:06:59.799Z,92.10
2023-01-07T12:09:32.628Z,92.20
2023-01-07T12:12:07.880Z,92.10
2023-01-07T12:14:38.455Z,92.20
2023-01-07T12:17:18.489Z,92.10
2023-01-07T12:19:48.304Z,92.20
2023-01-07T12:22:47.702Z,92.30
2023-01-07T12:25:39.982Z,92.00
2023-01-07T12:28:23.265Z,91.90
2023-01-07T12:31:06.869Z,91.70
2023-01-07T12:33:39.797Z,91.90
2023-01-07T12:36:20.223Z,91.90
2023-01-07T12:38:55.386Z,92.00
2023-01-07T12:41:34.559Z,91.90
2023-01-07T12:44:02.498Z,92.00
2023-01-07T12:46:43.970Z,92.00
2023-01-07T12:49:36.851Z,92.00
2023-01-07T12:52:11.494Z,91.90
2023-01-07T12:55:04.325Z,91.90
2023-01-07T12:57:34.337Z,91.90
2023-01-07T13:00:21.477Z,92.10
2023-01-07T13:02:51.509Z,91.80
2023-01-07T13:05:25.991Z,91.70
2023-01-07T13:07:56.943Z,91.50
2023-01-07T13:10:43.322Z,91.00
2023-01-07T13:13:22.269Z,91.20
2023-01-07T13:15:49.880Z,90.90
2023-01-07T13:18:19.179Z,90.90
2023-01-07T13:20:55.373Z,91.00
2023-01-07T13:23:43.961Z,90.90
2023-01-07T13:26:38.838Z,90.90
2023-01-07T13:29:15.808Z,90.90
2023-01-07T13:32:00.622Z,90.80
2023-01-07T13:34:55.480Z,90.70
2023-01-07T13:37:56.187Z,90.80
2023-01-07T13:40:47.285Z,90.90
2023-01-07T13:43:38.932Z,90.90
2023-01-07T13:46:14.169Z,90.80
2023-01-07T13:48:49.152Z,90.80
2023-01-07T13:51:24.779Z,90.80
2023-01-07T13:53:51.791Z,90.80
2023-01-07T13:56:18.829Z,90.80
2023-01-07T13:58:46.965Z,90.70
2023-01-07T14:01:26.952Z,90.70
2023-01-07T14:03:58.877Z,90.60
2023-01-07T14:06:41.944Z,90.60
2023-01-07T14:09:13.475Z,90.40
2023-01-07T14:11:44.109Z,90.40
2023-01-07T14:14:11.135Z,90.40
2023-01-07T14:16:55.388Z,90.40
2023-01-07T14:19:43.678Z,90.50
2023-01-07T14:22:34.046Z,90.60
2023-01-07T14:25:19.614Z,90.60
2023-01-07T14:28:01.963Z,90.80
2023-01-07T14:30:35.409Z,90.90
2023-01-07T14:33:05.104Z,90.90
2023-01-07T14:35:36.215Z,91.00
2023-01-07T14:38:29.070Z,91.10
2023-01-07T14:41:09.348Z,91.20
2023-01-07T14:43:48.382Z,91.20
2023-01-07T14:46:24.470Z,91.20
2023-01-07T14:49:03.446Z,91.20
2023-01-07T14:52:02.418Z,91.20
2023-01-07T14:54:47.363Z,91.30
2023-01-07T14:57:44.625Z,91.30
2023-01-07T15:00:53.560Z,91.30
2023-01-07T15:03:23.637Z,91.20
2023-01-07T15:06:22.968Z,91.20
2023-01-07T15:09:31.317Z,91.30
2023-01-07T15:12:28.890Z,91.30
2023-01-07T15:15:36.094Z,91.40
2023-01-07T15:18:07.520Z,91.40
2023-01-07T15:20:57.891Z,91.50
2023-01-07T15:23:41.481Z,91.50
2023-01-07T15:26:36.346Z,91.50
2023-01-07T15:29:11.128Z,91.60
2023-01-07T15:31:53.842Z,91.60
2023-01-07T15:34:21.829Z,91.70
2023-01-07T15:36:51.842Z,91.70
2023-01-07T15:39:25.802Z,91.80
2023-01-07T15:41:55.110Z,91.90
2023-01-07T15:44:23.888Z,92.00
2023-01-07T15:46:51.120Z,92.10
2023-01-07T15:49:25.881Z,92.10
2023-01-07T15:51:56.799Z,92.20
2023-01-07T15:54:31.278Z,92.20
2023-01-07T15:57:00.350Z,92.30
2023-01-07T15:59:33.112Z,92.30
2023-01-07T16:02:18.923Z,92.30
2023-01-07T16:04:48.750Z,92.40
2023-01-07T16:07:31.509Z,92.40
2023-01-07T16:09:59.417Z,92.40
2023-01-07T16:12:34.379Z,92.40
2023-01-07T16:15:04.884Z,92.40
2023-01-07T16:17:32.270Z,92.50
2023-01-07T16:20:20.832Z,92.50
2023-01-07T16:22:47.917Z,92.60
2023-01-07T16:25:22.935Z,92.60
2023-01-07T16:27:50.964Z,92.60
2023-01-07T16:30:18.469Z,92.60
2023-01-07T16:32:46.336Z,92.70
2023-01-07T16:35:26.476Z,92.80
2023-01-07T16:37:54.170Z,92.90
2023-01-07T16:40:29.452Z,92.90
2023-01-07T16:42:56.511Z,93.00
2023-01-07T16:45:29.295Z,93.00
2023-01-07T16:48:20.228Z,93.00
2023-01-07T16:50:49.076Z,93.10
2023-01-07T16:53:36.627Z,93.10
2023-01-07T16:56:12.575Z,93.30
2023-01-07T16:58:41.465Z,93.30
2023-01-07T17:01:13.745Z,93.30
2023-01-07T17:03:53.399Z,93.30
2023-01-07T17:06:27.461Z,93.40
2023-01-07T17:08:55.849Z,93.40
2023-01-07T17:11:39.951Z,93.30
2023-01-07T17:14:31.548Z,93.30
2023-01-07T17:17:09.008Z,93.30
2023-01-07T17:20:02.411Z,93.30
2023-01-07T17:22:35.721Z,93.40
2023-01-07T17:25:15.362Z,93.40
2023-01-07T17:28:06.967Z,93.50
2023-01-07T17:30:36.203Z,93.50
2023-01-07T17:33:03.564Z,93.50
2023-01-07T17:35:30.552Z,93.60
2023-01-07T17:37:57.586Z,93.70
2023-01-07T17:40:24.556Z,93.70
2023-01-07T17:43:09.992Z,93.80
2023-01-07T17:45:37.089Z,93.90
2023-01-07T17:48:13.468Z,93.90
2023-01-07T17:50:41.425Z,93.90
2023-01-07T17:53:22.463Z,94.00
2023-01-07T17:55:49.467Z,94.00
2023-01-07T17:58:31.550Z,94.10
2023-01-07T18:01:01.095Z,94.10
2023-01-07T18:03:28.780Z,94.20
2023-01-07T18:05:55.739Z,94.20
2023-01-07T18:08:22.774Z,94.30
2023-01-07T18:11:10.709Z,94.40
2023-01-07T18:13:38.112Z,94.50
2023-01-07T18:16:05.975Z,94.60
2023-01-07T18:18:33.210Z,94.60
2023-01-07T18:21:00.164Z,94.60
2023-01-07T18:23:27.143Z,94.70
2023-01-07T18:25:55.014Z,94.70
2023-01-07T18:28:22.021Z,94.70
2023-01-07T18:30:48.969Z,94.70
2023-01-07T18:33:15.924Z,94.70
2023-01-07T18:35:42.881Z,94.80
2023-01-07T18:38:14.119Z,94.90
2023-01-07T18:40:41.709Z,95.00
2023-01-07T18:43:14.107Z,95.10
2023-01-07T18:45:43.161Z,95.30
2023-01-07T18:48:11.930Z,95.40
2023-01-07T18:50:47.419Z,95.60
2023-01-07T18:53:14.483Z,95.70
2023-01-07T18:55:42.548Z,95.90
2023-01-07T18:58:14.722Z,96.00
2023-01-07T19:00:42.292Z,96.10
2023-01-07T19:03:10.715Z,96.20
2023-01-07T19:05:41.091Z,96.30
2023-01-07T19:08:08.143Z,96.40
2023-01-07T19:10:35.237Z,96.50
2023-01-07T19:13:02.289Z,96.60
2023-01-07T19:15:29.390Z,96.60
2023-01-07T19:17:56.406Z,96.80
2023-01-07T19:20:23.373Z,96.80
2023-01-07T19:22:50.448Z,96.90
2023-01-07T19:25:17.482Z,96.90
2023-01-07T19:27:44.533Z,96.90
2023-01-07T19:30:12.024Z,97.00
2023-01-07T19:32:39.013Z,97.00
2023-01-07T19:35:06.548Z,97.00
2023-01-07T19:37:36.165Z,97.10
2023-01-07T19:40:03.207Z,97.10
2023-01-07T19:42:31.541Z,97.00
2023-01-07T19:44:58.488Z,97.10
2023-01-07T19:47:25.640Z,97.10
2023-01-07T19:49:52.578Z,97.20
2023-01-07T19:52:19.566Z,97.20
2023-01-07T19:54:46.729Z,97.20
2023-01-07T19:57:13.668Z,97.20
2023-01-07T19:59:40.629Z,97.20
2023-01-07T20:02:07.871Z,97.30
2023-01-07T20:04:35.039Z,97.30
2023-01-07T20:07:02.038Z,97.30
2023-01-07T20:09:29.001Z,97.40
2023-01-07T20:11:56.052Z,97.40
2023-01-07T20:14:23.069Z,97.40
2023-01-07T20:16:50.131Z,97.50
2023-01-07T20:19:17.169Z,97.50
2023-01-07T20:21:44.341Z,97.50
2023-01-07T20:24:12.539Z,97.50
2023-01-07T20:26:39.503Z,97.40
2023-01-07T20:29:06.651Z,97.40
2023-01-07T20:31:33.761Z,97.30
2023-01-07T20:34:01.052Z,97.40
2023-01-07T20:36:32.911Z,97.40
2023-01-07T20:39:05.529Z,97.40
2023-01-07T20:41:34.204Z,97.40
2023-01-07T20:44:03.458Z,97.50
2023-01-07T20:46:31.532Z,97.50
2023-01-07T20:48:59.140Z,97.60
2023-01-07T20:51:26.133Z,97.60
2023-01-07T20:53:53.577Z,97.60
2023-01-07T20:56:23.156Z,97.60
2023-01-07T20:58:51.143Z,97.50
2023-01-07T21:01:21.418Z,97.40
2023-01-07T21:03:49.365Z,97.40
2023-01-07T21:06:18.184Z,97.40
2023-01-07T21:08:49.301Z,97.40
2023-01-07T21:11:19.176Z,97.40
2023-01-07T21:13:47.059Z,97.30
2023-01-07T21:16:14.532Z,97.40
2023-01-07T21:18:41.849Z,97.40
2023-01-07T21:21:29.399Z,97.40
2023-01-07T21:23:56.814Z,97.40
2023-01-07T21:26:25.076Z,97.40
2023-01-07T21:28:59.522Z,97.40
2023-01-07T21:31:27.240Z,97.40
2023-01-07T21:33:56.910Z,97.40
2023-01-07T21:36:24.962Z,97.50
2023-01-07T21:38:55.137Z,97.40
2023-01-07T21:41:24.122Z,97.30
2023-01-07T21:43:51.740Z,97.30
2023-01-07T21:46:18.894Z,97.30
2023-01-07T21:48:47.181Z,97.40
2023-01-07T21:51:26.176Z,97.40
2023-01-07T21:53:57.840Z,97.40
2023-01-07T21:56:27.839Z,97.40
2023-01-07T21:58:55.005Z,97.50
2023-01-07T22:01:22.912Z,97.50
2023-01-07T22:03:50.264Z,97.50
2023-01-07T22:06:23.105Z,97.40
2023-01-07T22:08:53.850Z,97.40
2023-01-07T22:11:20.892Z,97.50
2023-01-07T22:14:06.149Z,97.40
2023-01-07T22:16:33.256Z,97.30
2023-01-07T22:19:01.356Z,97.30
2023-01-07T22:21:28.403Z,97.40
2023-01-07T22:23:55.363Z,97.50
2023-01-07T22:26:23.039Z,97.50
2023-01-07T22:29:00.820Z,97.60
2023-01-07T22:31:32.312Z,97.60
2023-01-07T22:33:59.724Z,97.60
2023-01-07T22:36:34.797Z,97.50
2023-01-07T22:39:11.041Z,97.50
2023-01-07T22:41:38.318Z,97.60
2023-01-07T22:44:21.646Z,97.60
2023-01-07T22:46:50.396Z,97.60
2023-01-07T22:49:18.371Z,97.60
2023-01-07T22:51:48.163Z,97.60
2023-01-07T22:54:16.307Z,97.60
2023-01-07T22:56:44.244Z,97.60
2023-01-07T22:59:11.710Z,97.60
2023-01-07T23:01:39.901Z,97.60
2023-01-07T23:04:07.081Z,97.60
2023-01-07T23:06:34.185Z,97.60
2023-01-07T23:09:01.209Z,97.60
2023-01-07T23:11:49.621Z,97.50
2023-01-07T23:14:22.024Z,97.40
2023-01-07T23:16:50.434Z,97.40
2023-01-07T23:19:18.836Z,97.40
2023-01-07T23:21:48.040Z,97.30
2023-01-07T23:24:15.742Z,97.30
2023-01-07T23:26:43.595Z,97.30
2023-01-07T23:29:10.634Z,97.20
2023-01-07T23:31:38.000Z,97.20
2023-01-07T23:34:05.653Z,97.20
2023-01-07T23:36:32.963Z,97.20
2023-01-07T23:38:59.949Z,97.10
2023-01-07T23:41:26.905Z,97.10
2023-01-07T23:43:53.896Z,97.10
2023-01-07T23:46:20.879Z,97.20
2023-01-07T23:48:48.063Z,97.20
2023-01-07T23:51:20.439Z,97.30
2023-01-07T23:53:48.162Z,97.30
2023-01-07T23:56:18.889Z,97.30
2023-01-07T23:58:46.227Z,97.30
